createdAt,value
2017-06-12T00:00:20.080Z,7.30
2017-06-12T00:02:48.539Z,8.80
2017-06-12T00:05:16.985Z,8.87
2017-06-12T00:07:45.430Z,8.20
2017-06-12T00:10:13.950Z,9.63
2017-06-12T00:12:42.527Z,7.53
2017-06-12T00:15:10.962Z,7.87
2017-06-12T00:17:39.723Z,7.40
2017-06-12T00:20:08.188Z,8.23
2017-06-12T00:22:36.624Z,8.27
2017-06-12T00:25:05.043Z,8.43
2017-06-12T00:27:33.600Z,7.73
2017-06-12T00:30:02.036Z,9.53
2017-06-12T00:32:30.479Z,8.97
2017-06-12T00:34:59.690Z,8.13
2017-06-12T00:37:28.123Z,8.70
2017-06-12T00:39:56.572Z,8.30
2017-06-12T00:42:25.007Z,8.50
2017-06-12T00:44:53.451Z,8.77
2017-06-12T00:47:21.884Z,7.17
2017-06-12T00:49:51.087Z,7.93
2017-06-12T00:52:20.292Z,7.10
2017-06-12T00:54:48.723Z,7.87
2017-06-12T00:57:17.560Z,8.20
2017-06-12T00:59:46.826Z,6.70
2017-06-12T01:02:15.279Z,7.87
2017-06-12T01:04:43.716Z,8.00
2017-06-12T01:07:12.926Z,7.90
2017-06-12T01:09:41.440Z,7.27
2017-06-12T01:12:09.876Z,8.07
2017-06-12T01:14:39.195Z,8.80
2017-06-12T01:17:07.622Z,7.60
2017-06-12T01:19:36.099Z,8.60
2017-06-12T01:22:15.864Z,8.03
2017-06-12T01:24:44.311Z,7.57
2017-06-12T01:27:12.732Z,6.43
2017-06-12T01:29:41.195Z,7.13
2017-06-12T01:32:09.639Z,7.40
2017-06-12T01:34:38.096Z,7.90
2017-06-12T01:37:07.372Z,7.80
2017-06-12T01:39:35.815Z,7.17
2017-06-12T01:42:03.895Z,8.80
2017-06-12T01:44:32.336Z,8.03
2017-06-12T01:47:01.560Z,6.80
2017-06-12T01:49:29.995Z,8.60
2017-06-12T01:51:58.414Z,7.37
2017-06-12T01:54:26.497Z,7.87
2017-06-12T01:56:54.978Z,7.80
2017-06-12T01:59:23.406Z,7.50
2017-06-12T02:01:51.942Z,7.57
2017-06-12T02:04:20.376Z,7.00
2017-06-12T02:06:48.810Z,8.13
2017-06-12T02:09:17.259Z,7.50
2017-06-12T02:11:46.470Z,7.50
2017-06-12T02:14:14.898Z,7.70
2017-06-12T02:16:43.444Z,8.57
2017-06-12T02:19:11.870Z,7.97
2017-06-12T02:21:40.411Z,7.70
2017-06-12T02:24:08.836Z,7.33
2017-06-12T02:26:37.262Z,7.90
2017-06-12T02:29:06.467Z,8.30
2017-06-12T02:31:34.907Z,7.37
2017-06-12T02:34:03.335Z,7.97
2017-06-12T02:36:31.791Z,8.60
2017-06-12T02:39:01.005Z,9.20
2017-06-12T02:41:30.211Z,7.47
2017-06-12T02:43:58.650Z,9.40
2017-06-12T02:46:27.095Z,7.23
2017-06-12T02:48:55.570Z,7.40
2017-06-12T02:51:24.011Z,7.40
2017-06-12T02:53:52.664Z,8.07
2017-06-12T02:56:21.082Z,8.10
2017-06-12T02:58:50.302Z,8.17
2017-06-12T03:01:19.133Z,6.90
2017-06-12T03:03:47.598Z,7.33
2017-06-12T03:06:16.270Z,8.17
2017-06-12T03:08:44.695Z,7.13
2017-06-12T03:11:13.143Z,5.93
2017-06-12T03:13:40.880Z,7.00
2017-06-12T03:16:10.223Z,6.90
2017-06-12T03:18:38.659Z,6.57
2017-06-12T03:21:07.510Z,6.13
2017-06-12T03:23:35.966Z,7.07
2017-06-12T03:26:04.406Z,7.50
2017-06-12T03:28:32.870Z,6.67
2017-06-12T03:31:01.303Z,6.47
2017-06-12T03:33:29.811Z,7.10
2017-06-12T03:35:58.251Z,6.90
2017-06-12T03:38:26.022Z,6.40
2017-06-12T03:40:54.459Z,6.03
2017-06-12T03:43:24.551Z,7.47
2017-06-12T03:45:52.979Z,6.87
2017-06-12T03:48:22.271Z,6.63
2017-06-12T03:50:50.701Z,6.67
2017-06-12T03:53:19.140Z,6.83
2017-06-12T03:55:47.587Z,9.13
2017-06-12T03:58:16.239Z,6.10
2017-06-12T04:00:44.683Z,5.90
2017-06-12T04:03:13.115Z,6.53
2017-06-12T04:05:41.569Z,6.53
2017-06-12T04:08:10.776Z,6.93
2017-06-12T04:10:39.202Z,6.47
2017-06-12T04:13:07.674Z,5.17
2017-06-12T04:15:36.139Z,7.30
2017-06-12T04:18:04.579Z,5.60
2017-06-12T04:20:33.019Z,5.30
2017-06-12T04:23:01.497Z,5.60
2017-06-12T04:25:30.350Z,6.50
2017-06-12T04:27:59.557Z,4.63
2017-06-12T04:30:27.983Z,5.77
2017-06-12T04:32:56.632Z,6.97
2017-06-12T04:35:25.065Z,5.07
2017-06-12T04:37:53.491Z,5.50
2017-06-12T04:40:21.955Z,5.43
2017-06-12T04:42:51.224Z,5.40
2017-06-12T04:45:19.727Z,7.60
2017-06-12T04:47:48.143Z,7.37
2017-06-12T04:50:16.590Z,6.10
2017-06-12T04:52:45.020Z,5.23
2017-06-12T04:55:13.447Z,4.83
2017-06-12T04:57:41.935Z,4.43
2017-06-12T05:00:10.368Z,5.50
2017-06-12T05:02:38.823Z,4.37
2017-06-12T05:05:07.269Z,4.30
2017-06-12T05:07:35.916Z,5.07
2017-06-12T05:10:04.367Z,5.00
2017-06-12T05:12:33.572Z,8.63
2017-06-12T05:15:01.998Z,6.93
2017-06-12T05:17:30.438Z,5.73
2017-06-12T05:19:58.870Z,6.33
2017-06-12T05:22:27.291Z,8.30
2017-06-12T05:24:55.727Z,6.57
2017-06-12T05:27:24.169Z,4.70
2017-06-12T05:29:52.598Z,5.03
2017-06-12T05:32:21.056Z,4.70
2017-06-12T05:34:49.467Z,4.90
2017-06-12T05:37:17.943Z,5.30
2017-06-12T05:39:46.362Z,4.67
2017-06-12T05:42:14.794Z,5.33
2017-06-12T05:44:43.244Z,5.93
2017-06-12T05:47:11.703Z,5.37
2017-06-12T05:49:40.895Z,4.43
2017-06-12T05:52:10.206Z,4.37
2017-06-12T05:54:38.667Z,4.90
2017-06-12T05:57:07.096Z,4.80
2017-06-12T05:59:35.536Z,4.67
2017-06-12T06:02:04.731Z,5.10
2017-06-12T06:04:33.175Z,4.83
2017-06-12T06:07:01.595Z,5.23
2017-06-12T06:09:30.051Z,4.43
2017-06-12T06:11:58.491Z,4.73
2017-06-12T06:14:26.934Z,4.53
2017-06-12T06:16:55.364Z,6.00
2017-06-12T06:19:23.810Z,5.03
2017-06-12T06:21:53.018Z,9.17
2017-06-12T06:24:22.323Z,4.23
2017-06-12T06:26:50.766Z,7.83
2017-06-12T06:29:19.212Z,6.47
2017-06-12T06:31:47.652Z,12.90
2017-06-12T06:34:16.205Z,5.77
2017-06-12T06:36:44.667Z,4.80
2017-06-12T06:39:13.110Z,4.40
2017-06-12T06:41:42.292Z,5.20
2017-06-12T06:44:11.486Z,5.60
2017-06-12T06:46:39.935Z,4.30
2017-06-12T06:49:08.355Z,4.10
2017-06-12T06:51:37.676Z,5.30
2017-06-12T06:54:06.107Z,4.20
2017-06-12T06:56:34.739Z,4.53
2017-06-12T06:59:03.959Z,4.27
2017-06-12T07:01:32.366Z,3.73
2017-06-12T07:04:00.822Z,6.10
2017-06-12T07:06:29.238Z,4.90
2017-06-12T07:08:57.816Z,6.77
2017-06-12T07:11:26.252Z,4.63
2017-06-12T07:13:54.787Z,3.37
2017-06-12T07:16:23.268Z,3.27
2017-06-12T07:18:51.679Z,5.13
2017-06-12T07:21:20.895Z,3.47
2017-06-12T07:23:50.088Z,5.50
2017-06-12T07:26:19.292Z,4.70
2017-06-12T07:28:48.567Z,3.43
2017-06-12T07:31:17.030Z,4.87
2017-06-12T07:33:45.451Z,3.63
2017-06-12T07:36:14.277Z,3.80
2017-06-12T07:38:42.722Z,3.10
2017-06-12T07:41:11.920Z,4.97
2017-06-12T07:43:41.132Z,7.00
2017-06-12T07:46:10.315Z,3.43
2017-06-12T07:48:39.518Z,6.37
2017-06-12T07:51:08.737Z,3.17
2017-06-12T07:53:37.178Z,8.57
2017-06-12T07:56:05.622Z,3.87
2017-06-12T07:58:34.158Z,4.47
2017-06-12T08:01:03.355Z,3.13
2017-06-12T08:03:32.674Z,3.83
2017-06-12T08:06:01.114Z,6.10
2017-06-12T08:08:29.549Z,4.90
2017-06-12T08:10:57.988Z,3.50
2017-06-12T08:13:26.454Z,3.33
2017-06-12T08:15:54.928Z,3.60
2017-06-12T08:18:23.369Z,3.50
2017-06-12T08:20:51.806Z,3.70
2017-06-12T08:23:20.231Z,3.20
2017-06-12T08:25:48.843Z,3.40
2017-06-12T08:28:17.291Z,3.40
2017-06-12T08:30:46.487Z,3.47
2017-06-12T08:33:15.735Z,3.60
2017-06-12T08:35:44.177Z,3.17
2017-06-12T08:38:12.651Z,3.37
2017-06-12T08:40:41.855Z,3.33
2017-06-12T08:43:10.611Z,3.90
2017-06-12T08:45:39.043Z,3.57
2017-06-12T08:48:07.483Z,4.63
2017-06-12T08:50:36.315Z,5.80
2017-06-12T08:53:04.742Z,4.87
2017-06-12T08:55:33.194Z,4.30
2017-06-12T08:58:02.397Z,4.00
2017-06-12T09:00:31.231Z,3.70
2017-06-12T09:03:00.446Z,3.80
2017-06-12T09:05:29.659Z,4.93
2017-06-12T09:07:58.123Z,4.87
2017-06-12T09:10:27.323Z,3.57
2017-06-12T09:12:56.527Z,4.40
2017-06-12T09:15:25.706Z,3.93
2017-06-12T09:17:54.912Z,4.23
2017-06-12T09:20:24.119Z,5.30
2017-06-12T09:22:53.404Z,5.17
2017-06-12T09:25:22.045Z,4.27
2017-06-12T09:27:50.542Z,4.53
2017-06-12T09:30:19.746Z,4.20
2017-06-12T09:32:48.167Z,5.23
2017-06-12T09:35:16.606Z,4.87
2017-06-12T09:37:45.043Z,5.70
2017-06-12T09:40:13.459Z,5.13
2017-06-12T09:42:41.899Z,4.90
2017-06-12T09:45:10.320Z,5.13
2017-06-12T09:47:38.746Z,8.03
2017-06-12T09:50:07.571Z,4.67
2017-06-12T09:52:36.015Z,10.70
2017-06-12T09:55:04.450Z,6.20
2017-06-12T09:57:32.866Z,6.13
2017-06-12T10:00:01.314Z,5.80
2017-06-12T10:02:29.732Z,5.70
2017-06-12T10:04:58.867Z,6.73
2017-06-12T10:07:27.303Z,5.43
2017-06-12T10:09:55.735Z,10.50
2017-06-12T10:12:24.566Z,5.50
2017-06-12T10:14:53.035Z,5.57
2017-06-12T10:17:21.871Z,5.90
2017-06-12T10:19:50.299Z,6.43
2017-06-12T10:22:18.752Z,6.27
2017-06-12T10:24:47.207Z,7.40
2017-06-12T10:27:15.658Z,6.50
2017-06-12T10:29:44.100Z,5.83
2017-06-12T10:32:12.534Z,5.93
2017-06-12T10:37:18.094Z,8.70
2017-06-12T10:39:47.655Z,4.77
2017-06-12T10:42:16.103Z,6.17
2017-06-12T10:44:44.555Z,6.50
2017-06-12T10:47:12.978Z,5.97
2017-06-12T10:49:41.411Z,5.00
2017-06-12T10:52:09.872Z,6.73
2017-06-12T10:54:38.293Z,5.63
2017-06-12T10:57:06.750Z,5.43
2017-06-12T10:59:35.179Z,4.70
2017-06-12T11:02:03.897Z,4.50
2017-06-12T11:04:32.315Z,7.03
2017-06-12T11:07:00.819Z,5.43
2017-06-12T11:09:29.247Z,5.23
2017-06-12T11:11:57.995Z,5.80
2017-06-12T11:14:26.432Z,5.37
2017-06-12T11:16:54.894Z,5.23
2017-06-12T11:19:23.600Z,4.97
2017-06-12T11:21:53.517Z,5.17
2017-06-12T11:24:21.739Z,5.47
2017-06-12T11:26:50.255Z,5.70
2017-06-12T11:29:18.763Z,6.68
2017-06-12T11:31:46.995Z,7.20
2017-06-12T11:34:15.729Z,7.00
2017-06-12T11:36:44.159Z,5.50
2017-06-12T11:39:12.598Z,5.23
2017-06-12T11:41:41.051Z,4.90
2017-06-12T11:44:09.483Z,10.33
2017-06-12T11:46:38.204Z,5.90
2017-06-12T11:49:06.655Z,5.17
2017-06-12T11:51:35.099Z,5.40
2017-06-12T11:54:03.554Z,5.37
2017-06-12T11:56:31.974Z,4.70
2017-06-12T11:59:00.418Z,4.80
2017-06-12T12:01:28.852Z,4.70
2017-06-12T12:03:57.295Z,5.10
2017-06-12T12:06:25.732Z,5.00
2017-06-12T12:08:54.370Z,4.70
2017-06-12T12:11:22.979Z,3.93
2017-06-12T12:13:51.409Z,5.00
2017-06-12T12:16:19.834Z,4.13
2017-06-12T12:18:48.294Z,6.27
2017-06-12T12:21:17.038Z,6.10
2017-06-12T12:23:45.511Z,4.50
2017-06-12T12:26:13.944Z,7.80
2017-06-12T12:28:42.383Z,5.30
2017-06-12T12:31:11.079Z,6.12
2017-06-12T12:33:39.563Z,8.87
2017-06-12T12:36:07.975Z,3.90
2017-06-12T12:38:36.435Z,3.73
2017-06-12T12:41:05.262Z,6.90
2017-06-12T12:43:33.707Z,3.80
2017-06-12T12:46:02.553Z,4.13
2017-06-12T12:48:30.990Z,3.90
2017-06-12T12:50:59.810Z,3.80
2017-06-12T12:53:28.255Z,3.50
2017-06-12T12:55:57.156Z,4.15
2017-06-12T12:58:25.972Z,5.60
2017-06-12T13:00:54.411Z,3.23
2017-06-12T13:03:22.841Z,3.00
2017-06-12T13:05:51.283Z,3.30
2017-06-12T13:08:20.107Z,4.17
2017-06-12T13:10:48.839Z,2.72
2017-06-12T13:13:17.279Z,3.03
2017-06-12T13:15:45.999Z,3.40
2017-06-12T13:18:14.879Z,2.70
2017-06-12T13:20:43.603Z,3.55
2017-06-12T13:23:12.232Z,3.80
2017-06-12T13:25:40.933Z,2.28
2017-06-12T13:28:09.756Z,4.50
2017-06-12T13:30:38.599Z,7.40
2017-06-12T13:33:07.439Z,5.70
2017-06-12T13:35:36.554Z,2.27
2017-06-12T13:38:05.000Z,2.40
2017-06-12T13:40:33.735Z,3.70
2017-06-12T13:43:02.154Z,3.27
2017-06-12T13:45:31.388Z,3.63
2017-06-12T13:48:00.080Z,2.78
2017-06-12T13:50:28.582Z,2.00
2017-06-12T13:52:57.783Z,3.20
2017-06-12T13:55:26.215Z,2.23
2017-06-12T13:57:54.966Z,4.18
2017-06-12T14:00:23.404Z,2.90
2017-06-12T14:02:51.962Z,2.37
2017-06-12T14:05:20.696Z,4.10
2017-06-12T14:07:49.459Z,4.60
2017-06-12T14:10:17.899Z,3.27
2017-06-12T14:12:47.111Z,2.23
2017-06-12T14:15:15.811Z,4.35
2017-06-12T14:17:44.630Z,3.30
2017-06-12T14:20:13.083Z,3.17
2017-06-12T14:22:41.519Z,1.90
2017-06-12T14:25:10.891Z,2.83
2017-06-12T14:27:39.356Z,3.57
2017-06-12T14:30:07.801Z,1.90
2017-06-12T14:32:36.523Z,2.63
2017-06-12T14:35:05.228Z,2.40
2017-06-12T14:37:35.350Z,2.23
2017-06-12T14:40:04.084Z,2.27
2017-06-12T14:42:32.532Z,4.67
2017-06-12T14:45:00.949Z,4.70
2017-06-12T14:47:29.388Z,3.07
2017-06-12T14:49:58.235Z,2.67
2017-06-12T14:52:26.662Z,3.27
2017-06-12T14:54:55.496Z,2.30
2017-06-12T14:57:24.352Z,1.97
2017-06-12T14:59:53.531Z,1.70
2017-06-12T15:02:22.700Z,4.57
2017-06-12T15:04:51.143Z,1.80
2017-06-12T15:07:21.022Z,2.20
2017-06-12T15:09:50.448Z,3.93
2017-06-12T15:12:18.879Z,2.33
2017-06-12T15:14:47.347Z,1.37
2017-06-12T15:17:15.792Z,2.13
2017-06-12T15:19:44.994Z,1.90
2017-06-12T15:22:13.391Z,3.63
2017-06-12T15:24:41.803Z,2.00
2017-06-12T15:27:10.212Z,2.80
2017-06-12T15:29:38.637Z,1.60
2017-06-12T15:32:07.462Z,3.83
2017-06-12T15:34:35.916Z,3.33
2017-06-12T15:37:04.328Z,2.10
2017-06-12T15:39:33.558Z,2.33
2017-06-12T15:42:02.767Z,2.70
2017-06-12T15:44:31.280Z,2.93
2017-06-12T15:47:00.507Z,5.07
2017-06-12T15:49:29.343Z,1.70
2017-06-12T15:51:58.200Z,6.13
2017-06-12T15:54:26.897Z,1.70
2017-06-12T15:56:55.353Z,4.40
2017-06-12T15:59:24.585Z,1.40
2017-06-12T16:01:53.407Z,0.97
2017-06-12T16:04:21.843Z,1.73
2017-06-12T16:06:50.267Z,2.30
2017-06-12T16:09:18.692Z,3.07
2017-06-12T16:11:47.900Z,5.83
2017-06-12T16:14:16.364Z,1.30
2017-06-12T16:16:45.063Z,4.03
2017-06-12T16:19:13.491Z,1.83
2017-06-12T16:21:41.954Z,2.13
2017-06-12T16:24:10.380Z,1.20
2017-06-12T16:26:39.050Z,2.00
2017-06-12T16:29:07.563Z,3.50
2017-06-12T16:31:36.009Z,3.10
2017-06-12T16:34:04.858Z,2.07
2017-06-12T16:36:33.559Z,2.20
2017-06-12T16:39:02.407Z,1.23
2017-06-12T16:41:31.262Z,2.63
2017-06-12T16:44:00.151Z,2.95
2017-06-12T16:46:29.331Z,1.63
2017-06-12T16:48:57.793Z,1.10
2017-06-12T16:51:27.279Z,1.80
2017-06-12T16:53:56.103Z,1.67
2017-06-12T16:56:24.539Z,2.17
2017-06-12T16:58:53.375Z,2.07
2017-06-12T17:01:21.795Z,2.17
2017-06-12T17:03:51.000Z,2.00
2017-06-12T17:06:19.823Z,1.17
2017-06-12T17:08:48.664Z,3.50
2017-06-12T17:11:17.878Z,2.50
2017-06-12T17:13:46.708Z,3.03
2017-06-12T17:16:15.160Z,1.93
2017-06-12T17:18:43.612Z,2.63
2017-06-12T17:21:12.059Z,3.17
2017-06-12T17:23:40.491Z,3.10
2017-06-12T17:26:08.997Z,1.60
2017-06-12T17:28:38.904Z,1.77
2017-06-12T17:31:08.375Z,2.53
2017-06-12T17:33:37.608Z,3.27
2017-06-12T17:36:06.052Z,1.27
2017-06-12T17:38:35.396Z,1.47
2017-06-12T17:41:04.853Z,2.10
2017-06-12T17:43:34.100Z,1.77
2017-06-12T17:46:02.528Z,2.70
2017-06-12T17:48:30.970Z,9.07
2017-06-12T17:50:59.750Z,2.97
2017-06-12T17:53:28.179Z,2.13
2017-06-12T17:55:56.612Z,4.70
2017-06-12T17:58:25.075Z,2.50
2017-06-12T18:00:53.526Z,2.17
2017-06-12T18:03:22.063Z,3.25
2017-06-12T18:05:50.545Z,2.40
2017-06-12T18:08:19.380Z,1.97
2017-06-12T18:10:47.916Z,4.47
2017-06-12T18:13:16.171Z,1.50
2017-06-12T18:15:44.597Z,2.60
2017-06-12T18:18:13.043Z,2.63
2017-06-12T18:20:41.479Z,2.10
2017-06-12T18:23:09.941Z,6.33
2017-06-12T18:25:38.402Z,3.40
2017-06-12T18:28:06.838Z,2.60
2017-06-12T18:30:36.064Z,3.03
2017-06-12T18:33:04.492Z,4.27
2017-06-12T18:35:33.014Z,1.50
2017-06-12T18:38:01.451Z,3.53
2017-06-12T18:40:29.887Z,2.80
2017-06-12T18:42:58.371Z,2.60
2017-06-12T18:45:26.834Z,2.20
2017-06-12T18:47:56.048Z,5.37
2017-06-12T18:50:24.591Z,2.70
2017-06-12T18:52:53.054Z,2.17
2017-06-12T18:55:22.166Z,2.83
2017-06-12T18:57:50.687Z,5.50
2017-06-12T19:00:19.731Z,1.63
2017-06-12T19:02:48.159Z,2.63
2017-06-12T19:05:17.375Z,4.00
2017-06-12T19:07:45.829Z,4.80
2017-06-12T19:10:15.051Z,2.80
2017-06-12T19:12:43.476Z,5.53
2017-06-12T19:15:11.925Z,1.80
2017-06-12T19:17:40.383Z,2.13
2017-06-12T19:20:09.631Z,3.53
2017-06-12T19:22:38.069Z,2.07
2017-06-12T19:25:07.279Z,5.07
2017-06-12T19:27:35.731Z,2.27
2017-06-12T19:30:04.166Z,2.10
2017-06-12T19:32:32.619Z,3.53
2017-06-12T19:35:01.144Z,4.77
2017-06-12T19:37:29.605Z,4.60
2017-06-12T19:39:58.026Z,2.10
2017-06-12T19:42:26.459Z,2.00
2017-06-12T19:44:54.901Z,1.73
2017-06-12T19:47:23.387Z,2.00
2017-06-12T19:49:52.595Z,1.17
2017-06-12T19:52:21.928Z,2.40
2017-06-12T19:54:50.553Z,4.17
2017-06-12T19:57:18.999Z,3.17
2017-06-12T19:59:47.457Z,1.77
2017-06-12T20:02:16.696Z,3.33
2017-06-12T20:04:45.131Z,1.53
2017-06-12T20:07:14.337Z,1.30
2017-06-12T20:09:43.551Z,1.60
2017-06-12T20:12:11.970Z,2.90
2017-06-12T20:14:40.429Z,2.20
2017-06-12T20:17:08.884Z,1.43
2017-06-12T20:19:38.136Z,1.63
2017-06-12T20:22:06.572Z,4.03
2017-06-12T20:24:35.111Z,2.97
2017-06-12T20:27:03.559Z,2.57
2017-06-12T20:29:31.974Z,3.50
2017-06-12T20:32:00.435Z,5.33
2017-06-12T20:34:28.863Z,3.03
2017-06-12T20:36:58.063Z,3.70
2017-06-12T20:39:27.323Z,3.47
2017-06-12T20:41:55.756Z,5.43
2017-06-12T20:44:24.897Z,2.00
2017-06-12T20:46:54.163Z,3.87
2017-06-12T20:49:22.618Z,2.27
2017-06-12T20:51:51.820Z,2.27
2017-06-12T20:54:21.027Z,3.53
2017-06-12T20:56:50.219Z,3.80
2017-06-12T20:59:19.439Z,2.50
2017-06-12T21:01:47.870Z,3.50
2017-06-12T21:04:16.295Z,2.73
2017-06-12T21:06:44.740Z,3.10
2017-06-12T21:09:13.262Z,2.90
2017-06-12T21:11:41.706Z,6.60
2017-06-12T21:14:10.134Z,2.73
2017-06-12T21:16:38.585Z,1.57
2017-06-12T21:19:07.794Z,3.20
2017-06-12T21:21:37.006Z,1.60
2017-06-12T21:24:05.616Z,3.43
2017-06-12T21:26:34.072Z,2.37
2017-06-12T21:29:02.501Z,2.70
2017-06-12T21:31:30.932Z,1.70
2017-06-12T21:33:59.526Z,2.30
2017-06-12T21:36:27.964Z,1.50
2017-06-12T21:38:56.413Z,2.17
2017-06-12T21:41:24.850Z,1.83
2017-06-12T21:43:54.055Z,2.53
2017-06-12T21:46:23.287Z,4.50
2017-06-12T21:48:51.975Z,5.60
2017-06-12T21:51:20.403Z,3.10
2017-06-12T21:53:48.827Z,5.40
2017-06-12T21:56:17.270Z,2.87
2017-06-12T21:58:46.475Z,4.90
2017-06-12T22:01:15.663Z,5.03
2017-06-12T22:03:44.113Z,2.70
2017-06-12T22:06:13.219Z,1.93
2017-06-12T22:08:41.779Z,3.33
2017-06-12T22:11:10.219Z,1.90
2017-06-12T22:13:39.427Z,3.57
2017-06-12T22:16:08.606Z,1.40
2017-06-12T22:18:37.812Z,3.30
2017-06-12T22:21:07.023Z,4.30
2017-06-12T22:23:35.455Z,2.70
2017-06-12T22:26:03.899Z,1.80
2017-06-12T22:28:32.339Z,2.57
2017-06-12T22:31:00.771Z,1.90
2017-06-12T22:33:29.207Z,3.10
2017-06-12T22:35:57.692Z,4.77
2017-06-12T22:38:26.143Z,2.97
2017-06-12T22:40:54.573Z,4.67
2017-06-12T22:43:23.763Z,1.80
2017-06-12T22:45:52.207Z,2.30
2017-06-12T22:48:21.347Z,4.53
2017-06-12T22:50:50.575Z,2.67
2017-06-12T22:53:20.458Z,2.80
2017-06-12T22:55:49.678Z,5.07
2017-06-12T22:58:18.155Z,2.40
2017-06-12T23:00:46.582Z,3.50
2017-06-12T23:03:15.088Z,3.00
2017-06-12T23:05:43.603Z,2.60
2017-06-12T23:08:12.076Z,2.70
2017-06-12T23:10:41.311Z,2.37
2017-06-12T23:13:09.875Z,3.70
2017-06-12T23:15:38.736Z,1.63
2017-06-12T23:18:07.155Z,4.03
2017-06-12T23:20:35.438Z,5.10
2017-06-12T23:23:03.876Z,3.10
2017-06-12T23:25:37.896Z,4.40
2017-06-12T23:28:07.312Z,2.47
2017-06-12T23:30:36.499Z,5.30
2017-06-12T23:33:05.775Z,1.57
2017-06-12T23:35:34.194Z,3.37
2017-06-12T23:38:03.391Z,1.80
2017-06-12T23:40:32.592Z,3.03
2017-06-12T23:43:01.789Z,4.10
2017-06-12T23:45:30.979Z,2.50
2017-06-12T23:48:00.175Z,3.57
2017-06-12T23:50:29.375Z,4.47
2017-06-12T23:52:58.582Z,2.37
2017-06-12T23:55:27.802Z,2.00
2017-06-12T23:57:56.255Z,4.00
